METAR Data
IDs: Format: Raw Decoded Include TAF

Data at: 0242 UTC 19 Oct 2021

KFLP 190156Z AUTO 00000KT 10SM CLR 13/08 A3011 RMK AO2 SLP198 T01330083
KFLP 190056Z AUTO 00000KT 10SM CLR 14/09 A3009 RMK AO2 SLP192 T01390089
KFLP 182356Z AUTO 00000KT 10SM CLR 18/08 A3008 RMK AO2 SLP185 T01780078 10233 20178 56009
KFLP 182256Z AUTO 14004KT 10SM CLR 21/07 A3008 RMK AO2 SLP185 T02060072
KFLP 182156Z AUTO 17006KT 10SM CLR 22/07 A3010 RMK AO2 SLP188 T02220067
KFLP 182056Z AUTO VRB06KT 10SM CLR 23/07 A3011 RMK AO2 SLP193 T02280067 56024
KFLP 181956Z AUTO 17006KT 10SM CLR 23/07 A3012 RMK AO2 SLP196 T02280072
KFLP 181856Z AUTO 19005KT 10SM CLR 23/08 A3015 RMK AO2 SLP204 T02280078
KFLP 181756Z AUTO VRB04KT 10SM CLR 22/08 A3018 RMK AO2 SLP217 T02170083 10217 20044 58018
KFLP 181656Z AUTO 10003KT 10SM CLR 19/10 A3021 RMK AO2 SLP228 T01940100
KFLP 181556Z AUTO VRB03KT 10SM CLR 16/09 A3023 RMK AO2 SLP235 T01560094
KFLP 181456Z AUTO 00000KT 8SM FEW001 17/11 A3024 RMK AO2 SLP236 T01670111 51007
KFLP 181356Z AUTO 00000KT 7SM FEW002 08/08 A3023 RMK AO2 SLP237 T00780078
KFLP 181351Z AUTO 00000KT 7SM FEW002 08/07 A3023 RMK AO2
KFLP 181342Z AUTO 00000KT 2SM BR FEW002 07/07 A3023 RMK AO2 VIS 1V5
KFLP 181339Z AUTO 00000KT 1SM BR VV002 07/07 A3023 RMK AO2 VIS 1/2V2 1/2
KFLP 181331Z AUTO 00000KT 1/2SM FG VV002 07/07 A3023 RMK AO2
KFLP 181307Z AUTO 00000KT 1/4SM FG VV002 06/06 A3022 RMK AO2
KFLP 181256Z AUTO 00000KT M1/4SM FG VV001 06/05 A3022 RMK AO2 SLP231 T00560050
KFLP 181217Z AUTO 03003KT 1/4SM FG VV001 05/04 A3021 RMK AO2
KFLP 181213Z AUTO 00000KT 1/2SM FG CLR 05/04 A3021 RMK AO2
KFLP 181211Z AUTO 02003KT 1 1/4SM BR CLR 05/04 A3021 RMK AO2
KFLP 181156Z AUTO 00000KT 10SM CLR 05/04 A3021 RMK AO2 SLP229 T00500044 10078 20050 53007
KFLP 181056Z AUTO 00000KT 10SM FEW001 05/05 A3020 RMK AO2 SLP225 T00500050
KFLP 181047Z AUTO 00000KT 10SM SCT001 06/05 A3020 RMK AO2
KFLP 181026Z AUTO 00000KT 10SM BKN001 06/06 A3019 RMK AO2
KFLP 180956Z AUTO 00000KT 5SM BR FEW001 06/06 A3019 RMK AO2 SLP219 T00610056
KFLP 180949Z AUTO 00000KT 2 1/2SM BR FEW001 06/06 A3019 RMK AO2 VIS 1 1/2V5
KFLP 180943Z AUTO 00000KT 1SM BR CLR 06/06 A3019 RMK AO2
KFLP 180939Z AUTO 00000KT 1/2SM FG CLR 06/06 A3019 RMK AO2
KFLP 180931Z AUTO 00000KT 3/4SM BR CLR 06/06 A3018 RMK AO2
KFLP 180929Z AUTO 00000KT 1 1/4SM BR CLR 06/06 A3018 RMK AO2
KFLP 180856Z AUTO 00000KT 10SM CLR 06/06 A3018 RMK AO2 SLP218 T00610061 58005
KFLP 180756Z AUTO 00000KT 10SM CLR 07/06 A3019 RMK AO2 SLP221 T00670061
KFLP 180656Z AUTO 00000KT 10SM CLR 07/07 A3020 RMK AO2 SLP223 T00720067
KFLP 180556Z AUTO 00000KT 10SM CLR 08/07 A3020 RMK AO2 SLP224 T00780072 10161 20078 402220033 58005
KFLP 180456Z AUTO 00000KT 10SM CLR 08/08 A3021 RMK AO2 SLP227 T00830078
KFLP 180356Z AUTO 00000KT 10SM CLR 09/08 A3022 RMK AO2 SLP231 T00940083
KFLP 180256Z AUTO 04003KT 5SM BR CLR 11/09 A3022 RMK AO2 SLP232 T01060089 51006
KFLP 180156Z AUTO 00000KT 10SM CLR 11/09 A3021 RMK AO2 SLP230 T01110089
KFLP 180056Z AUTO 00000KT 10SM CLR 13/09 A3021 RMK AO2 SLP229 T01330089
KFLP 172356Z AUTO 00000KT 10SM CLR 16/08 A3020 RMK AO2 SLP227 T01610083 10222 20161 56006
KFLP 172256Z AUTO 00000KT 10SM CLR 21/07 A3020 RMK AO2 SLP226 T02060067
KFLP 172156Z AUTO 00000KT 10SM CLR 22/06 A3021 RMK AO2 SLP227 T02220061
KFLP 172056Z AUTO VRB04KT 10SM CLR 22/06 A3022 RMK AO2 SLP231 T02220056 56023
KFLP 171956Z AUTO 00000KT 10SM CLR 22/04 A3024 RMK AO2 SLP237 T02170044
KFLP 171856Z AUTO 00000KT 10SM CLR 21/06 A3026 RMK AO2 SLP245 T02110061
KFLP 171756Z AUTO 00000KT 10SM CLR 20/07 A3029 RMK AO2 SLP255 T02000067 10200 20033 58019
KFLP 171656Z AUTO 00000KT 10SM CLR 18/07 A3032 RMK AO2 SLP266 T01830072
KFLP 171556Z AUTO 03003KT 10SM CLR 16/08 A3034 RMK AO2 SLP272 T01560083
KFLP 171456Z AUTO 00000KT 8SM CLR 12/07 A3035 RMK AO2 SLP277 T01170072 51007